Terminal Aerodrome Forecast
Issued by NWS St Louis, MO

Home | Current Version | Previous Version | Text Only | Print | Product List | Glossary On
Versions: 1 2 3 4 5 6 7 8 9 10 11 12 13 14 15 16
000
FTUS43 KLSX 142340
TAFCOU
TAF
KCOU 142340Z 1500/1524 19013G20KT P6SM VCTS SCT050CB BKN120
     FM150300 20013G20KT 6SM -SHRA VCTS BKN040CB WS020/21045KT
      TEMPO 1503/1505 VRB20G40KT 2SM TSRA OVC020CB
     FM150600 27017G27KT 5SM -SHRA OVC015
     FM150900 30018G28KT P6SM OVC015
     FM151500 32016G26KT P6SM SCT030=

USA.gov is the U.S. government's official web portal to all federal, state and local government web resources and services.